Liberdade, Brazil
Current Conditions -  °F | °C
As of 7:00 PM on Tuesday 27 Jan 2015 (Local Time) from SBJF Reporting Station
Broken Clouds Broken Clouds  
Wind Chill: 81°   Ceiling: 8000
Heat Index: 83°   Visibility: 6mi
Dew Point: 66°   Wind: 3mph
Humidity: 61%   Direction: 360°N
Pressure: 30.03"   Gusts: NA
Location:  22.03°S, 44.32°W
Report Text: SBJF 272100Z 36003KT 9999 FEW040 FEW045TCU BKN080 27/19 Q1017
Loading
Personal Weather Stations






























Interactive Weather Map New forecast layout! Learn more

10-Day Weather Forecast

Advertisements
Track Severe Weather on mobile